This is the latest recevied weather packets stored in our database for station/object N4OGP-WX. If no packets are shown the sender has not sent any weather packets the latest 10 day(s).
| Time | Temp. | Humidity | Pressure | Rain* | Wind** | Luminosity | Snow |
|---|---|---|---|---|---|---|---|
| 1778340480 | 23.89° C | 42% | 1020.4 hPa | 0 mm | - | - | - |
| 1778340420 | 19.44° C | 95% | 1012 hPa | 0 mm | - | - | - |
| 1778340360 | 23.89° C | 42% | 1020.4 hPa | 0 mm | - | - | - |
| 1778340300 | 19.44° C | 95% | 1011.9 hPa | 0 mm | - | - | - |
| 1778340210 | 23.89° C | 42% | 1020.4 hPa | 0 mm | - | - | - |
| 1778340150 | 20° C | 95% | 1011.8 hPa | 0 mm | - | - | - |
| 1778340060 | 20° C | 96% | 1011.7 hPa | 0 mm | - | - | - |
| 1778340000 | 23.89° C | 42% | 1020.4 hPa | 0 mm | - | - | - |
| 1778339910 | 23.89° C | 42% | 1020.4 hPa | 0 mm | - | - | - |
| 1778339850 | 23.89° C | 42% | 1020.4 hPa | 0 mm | - | - | - |
| 1778339790 | 23.89° C | 42% | 1020.4 hPa | 0 mm | - | - | - |
| 1778339700 | 23.89° C | 42% | 1020.4 hPa | 0 mm | - | - | - |
| 1778339610 | 20.56° C | 96% | 1011.7 hPa | 0 mm | - | - | - |
| 1778339520 | 23.89° C | 42% | 1020.4 hPa | 0 mm | - | - | - |
| 1778339430 | 23.89° C | 42% | 1020.4 hPa | 0 mm | - | - | - |
| 1778339370 | 20.56° C | 96% | 1011.3 hPa | 0 mm | - | - | - |
| 1778339280 | 20.56° C | 96% | 1011.3 hPa | 0 mm | - | - | - |
| 1778339220 | 20.56° C | 97% | 1011.2 hPa | 0 mm | - | - | - |
| 1778339130 | 23.89° C | 42% | 1020.4 hPa | 0 mm | - | - | - |
| 1778339070 | 23.89° C | 42% | 1020.4 hPa | 0 mm | - | - | - |
| 1778339010 | 21.11° C | 97% | 1010.9 hPa | 0 mm | - | - | - |
| 1778338920 | 23.89° C | 42% | 1020.4 hPa | 0 mm | - | - | - |
| 1778338860 | 21.11° C | 97% | 1010.8 hPa | 0 mm | - | - | - |
| 1778338800 | 23.89° C | 42% | 1020.4 hPa | 0 mm | - | - | - |
| 1778338710 | 23.89° C | 42% | 1020.4 hPa | 0 mm | - | - | - |
* Rain latest hour (hover to see other rain measurements)
** Current wind speed in m/s (hover to see current wind gust speed)